Time;durP1;ratioP1;P1;durP2;ratioP2;P2;SDS_P1;SDS_P2;PMS_P1;PMS_P2;Temp;Humidity;BMP_temperature;BMP_pressure;BME280_temperature;BME280_humidity;BME280_pressure;Samples;Min_cycle;Max_cycle;Signal;HPM_P1;HPM_P2
2022/10/16 00:01:16;;;;;;;4.67;1.27;;;;;;;10.05;100.00;100544.59;5072214;28;20811;-77
2022/10/16 00:03:43;;;;;;;6.17;1.83;;;;;;;10.71;100.00;100672.66;5077166;28;20189;-77
2022/10/16 00:06:10;;;;;;;4.00;1.53;;;;;;;12.43;100.00;100943.25;5071995;28;21526;-76
2022/10/16 00:08:36;;;;;;;3.67;1.60;;;;;;;11.57;100.00;100830.31;5070671;28;20553;-78
2022/10/16 00:11:07;;;;;;;4.33;1.23;;;;;;;11.53;100.00;100774.31;5073338;28;20449;-77
2022/10/16 00:13:34;;;;;;;5.10;1.40;;;;;;;11.05;100.00;100720.81;5076181;28;20526;-77
2022/10/16 00:16:00;;;;;;;7.10;1.70;;;;;;;9.84;100.00;100530.34;5074733;28;21895;-76
2022/10/16 00:18:26;;;;;;;2.87;1.30;;;;;;;12.41;100.00;100973.06;5076497;28;20439;-76
2022/10/16 00:20:52;;;;;;;3.10;1.20;;;;;;;10.31;100.00;100611.72;5077542;28;20444;-76
2022/10/16 00:23:18;;;;;;;6.83;2.17;;;;;;;10.37;100.00;100632.34;5076323;28;20447;-76
2022/10/16 00:25:43;;;;;;;7.27;1.50;;;;;;;11.70;100.00;100812.34;5062169;28;20578;-76
2022/10/16 00:28:09;;;;;;;3.63;1.60;;;;;;;10.83;100.00;100690.63;5079374;28;20467;-76
2022/10/16 00:30:38;;;;;;;6.87;1.57;;;;;;;9.98;100.00;100523.16;5075231;28;20246;-77
2022/10/16 00:33:03;;;;;;;3.10;1.23;;;;;;;11.75;100.00;100811.72;5074660;28;20206;-77
2022/10/16 00:35:30;;;;;;;3.60;1.83;;;;;;;10.55;100.00;100657.75;5078368;28;20612;-77
2022/10/16 00:37:55;;;;;;;3.37;1.50;;;;;;;10.47;100.00;100623.94;5078959;28;20190;-77
2022/10/16 00:40:21;;;;;;;6.00;1.50;;;;;;;10.58;100.00;100622.47;5076143;28;20467;-76
2022/10/16 00:42:46;;;;;;;6.30;1.50;;;;;;;11.56;100.00;100793.75;5077912;28;20185;-79
2022/10/16 00:45:12;;;;;;;6.27;1.60;;;;;;;10.33;100.00;100603.47;5079391;28;20213;-76
2022/10/16 00:47:42;;;;;;;5.83;1.80;;;;;;;10.97;100.00;100717.50;5080579;28;20213;-77
2022/10/16 00:50:26;;;;;;;4.20;1.40;;;;;;;10.34;100.00;100584.50;5080568;28;20217;-76
2022/10/16 00:52:52;;;;;;;4.83;1.70;;;;;;;10.69;100.00;100666.66;5075608;28;20432;-77
2022/10/16 00:55:18;;;;;;;6.57;1.63;;;;;;;10.17;100.00;100557.19;5077327;28;20442;-77
2022/10/16 00:57:45;;;;;;;4.90;1.20;;;;;;;10.93;100.00;100690.22;5074090;28;20197;-76
2022/10/16 01:00:13;;;;;;;5.63;1.63;;;;;;;10.93;100.00;100695.56;5074871;28;21024;-77
2022/10/16 01:02:39;;;;;;;9.00;2.27;;;;;;;11.58;100.00;100772.88;5076660;28;20492;-76
2022/10/16 01:05:05;;;;;;;3.47;1.50;;;;;;;10.99;100.00;100726.13;5076274;28;20448;-75
2022/10/16 01:07:43;;;;;;;7.70;1.63;;;;;;;10.22;100.00;100563.81;5081050;28;20209;-76
2022/10/16 01:10:31;;;;;;;3.80;1.33;;;;;;;12.40;100.00;100919.47;5074619;28;21034;-76
2022/10/16 01:13:21;;;;;;;5.00;1.37;;;;;;;12.47;100.00;100962.47;5075891;28;20437;-76
2022/10/16 01:15:51;;;;;;;7.40;1.83;;;;;;;12.38;100.00;100929.59;5073124;28;20501;-75
2022/10/16 01:18:39;;;;;;;5.57;2.20;;;;;;;12.40;100.00;100922.16;5076003;28;21017;-77
2022/10/16 01:21:16;;;;;;;5.40;1.83;;;;;;;10.70;100.00;100682.53;5077195;28;20959;-76
2022/10/16 01:23:56;;;;;;;3.93;1.70;;;;;;;12.40;100.00;100916.75;5071071;28;20440;-76
2022/10/16 01:26:59;;;;;;;2.90;1.27;;;;;;;12.37;100.00;100914.50;5073892;28;20435;-76
2022/10/16 01:29:39;;;;;;;3.37;1.50;;;;;;;9.93;100.00;100529.13;5077251;28;20555;-76
2022/10/16 01:32:16;;;;;;;4.47;1.77;;;;;;;10.87;100.00;100736.66;5083366;28;20438;-77
2022/10/16 01:34:49;;;;;;;6.90;1.87;;;;;;;11.15;100.00;100762.53;5080984;28;20420;-76
2022/10/16 01:37:31;;;;;;;5.00;1.47;;;;;;;11.66;100.00;100834.47;5081755;28;20412;-75
2022/10/16 01:40:01;;;;;;;3.63;1.70;;;;;;;10.15;100.00;100615.56;5079935;28;20647;-76
2022/10/16 01:42:35;;;;;;;5.93;1.63;;;;;;;10.93;100.00;100757.31;5081446;28;20463;-76
2022/10/16 01:45:02;;;;;;;3.63;1.30;;;;;;;10.49;100.00;100662.06;5078569;28;20425;-77
2022/10/16 01:47:30;;;;;;;6.17;1.90;;;;;;;10.57;100.00;100677.16;5077415;28;20563;-77
2022/10/16 01:49:57;;;;;;;5.50;1.93;;;;;;;10.71;100.00;100734.34;5078016;28;20468;-78
2022/10/16 01:52:26;;;;;;;5.27;1.70;;;;;;;9.92;100.00;100596.28;5077025;28;20440;-76
2022/10/16 01:54:55;;;;;;;4.80;1.60;;;;;;;11.00;100.00;100755.47;5075118;28;20574;-76
2022/10/16 01:57:21;;;;;;;3.90;1.50;;;;;;;10.27;100.00;100618.50;5079573;28;20440;-76
2022/10/16 01:59:51;;;;;;;4.20;1.67;;;;;;;11.51;100.00;100803.25;5061975;28;20866;-76
2022/10/16 02:02:19;;;;;;;5.43;2.33;;;;;;;10.87;100.00;100744.69;5077163;28;20506;-76
2022/10/16 02:04:59;;;;;;;4.03;1.60;;;;;;;12.21;100.00;100930.03;5077405;28;20931;-76
2022/10/16 02:07:24;;;;;;;4.93;1.90;;;;;;;11.83;100.00;100891.31;5075080;28;21094;-76
2022/10/16 02:09:50;;;;;;;5.00;1.60;;;;;;;10.33;100.00;100614.19;5058401;28;21099;-76
2022/10/16 02:12:25;;;;;;;4.07;1.50;;;;;;;10.41;100.00;100624.72;5076347;28;20187;-75
2022/10/16 02:14:51;;;;;;;3.70;1.63;;;;;;;11.41;100.00;100823.50;5076922;28;20699;-76
2022/10/16 02:17:17;;;;;;;7.67;1.97;;;;;;;12.24;100.00;100926.09;5062640;28;20436;-76
2022/10/16 02:19:45;;;;;;;5.90;1.83;;;;;;;10.09;100.00;100604.81;5081601;28;20210;-77
2022/10/16 02:22:36;;;;;;;4.77;1.40;;;;;;;11.34;100.00;100803.84;5082703;28;20448;-76
2022/10/16 02:25:31;;;;;;;4.90;1.57;;;;;;;9.98;100.00;100565.19;5064125;28;20960;-76
2022/10/16 02:27:59;;;;;;;6.00;1.60;;;;;;;12.27;100.00;100911.41;5081655;28;20464;-76
2022/10/16 02:30:33;;;;;;;9.40;1.83;;;;;;;10.29;100.00;100602.22;5081987;28;20922;-76
2022/10/16 02:33:00;;;;;;;6.43;1.70;;;;;;;11.30;100.00;100785.44;5078533;28;21084;-77
2022/10/16 02:35:27;;;;;;;5.30;2.10;;;;;;;10.91;100.00;100712.94;5069809;28;20440;-78
2022/10/16 02:37:54;;;;;;;5.10;1.50;;;;;;;11.53;100.00;100814.59;5053995;28;20932;-76
2022/10/16 02:40:19;;;;;;;3.70;1.40;;;;;;;10.28;100.00;100643.47;5062538;28;20627;-77
2022/10/16 02:42:50;;;;;;;2.97;1.23;;;;;;;10.83;100.00;100722.81;5080957;28;20883;-76
2022/10/16 02:45:16;;;;;;;8.33;1.50;;;;;;;10.25;100.00;100638.47;5080927;28;20222;-75
2022/10/16 02:47:42;;;;;;;6.20;2.13;;;;;;;10.07;100.00;100588.94;5064120;28;20889;-76
2022/10/16 02:50:07;;;;;;;4.67;1.80;;;;;;;10.28;100.00;100635.41;5082833;28;21024;-80
2022/10/16 02:52:32;;;;;;;5.60;1.57;;;;;;;11.14;100.00;100766.22;5083050;28;20197;-76
2022/10/16 02:54:58;;;;;;;5.23;1.80;;;;;;;10.35;100.00;100629.03;5079792;28;21124;-76
2022/10/16 02:57:23;;;;;;;2.67;1.27;;;;;;;10.12;100.00;100564.19;5085976;28;20185;-76
2022/10/16 02:59:49;;;;;;;3.70;2.20;;;;;;;10.25;100.00;100571.47;5078187;28;20220;-76
2022/10/16 03:02:14;;;;;;;4.30;1.40;;;;;;;10.99;100.00;100694.78;5079439;28;20190;-77
2022/10/16 03:04:40;;;;;;;6.50;1.53;;;;;;;11.04;100.00;100745.16;5076459;28;20196;-76
2022/10/16 03:07:05;;;;;;;5.67;1.53;;;;;;;10.43;100.00;100617.31;5082399;28;20251;-76
2022/10/16 03:09:31;;;;;;;3.93;1.50;;;;;;;12.27;100.00;100897.97;5073570;22;20683;-70
2022/10/16 03:11:56;;;;;;;5.77;1.87;;;;;;;12.31;100.00;100896.50;5034744;28;20188;-70
2022/10/16 03:14:22;;;;;;;2.50;1.40;;;;;;;12.42;100.00;100903.94;5035130;28;20203;-71
2022/10/16 03:16:47;;;;;;;3.60;1.47;;;;;;;12.26;100.00;100899.00;5039101;28;20195;-70
2022/10/16 03:19:12;;;;;;;3.10;1.70;;;;;;;12.05;100.00;100865.09;5034781;28;20231;-70
2022/10/16 03:21:38;;;;;;;4.37;1.60;;;;;;;12.46;100.00;100928.56;5022596;28;20195;-70
2022/10/16 03:24:03;;;;;;;3.90;1.83;;;;;;;12.12;100.00;100868.59;5035999;28;20540;-71
2022/10/16 03:26:29;;;;;;;7.20;2.00;;;;;;;12.43;100.00;100921.72;5037140;28;20195;-70
2022/10/16 03:28:54;;;;;;;3.87;2.10;;;;;;;12.01;100.00;100864.69;5034888;28;20655;-70
2022/10/16 03:31:19;;;;;;;7.97;2.00;;;;;;;12.45;100.00;100908.91;5035145;28;20187;-70
2022/10/16 03:33:45;;;;;;;3.63;1.43;;;;;;;12.32;100.00;100890.91;5022983;28;20196;-71
2022/10/16 03:36:10;;;;;;;6.40;2.03;;;;;;;12.37;100.00;100901.88;5035613;28;20189;-70
2022/10/16 03:38:36;;;;;;;4.33;1.60;;;;;;;12.52;100.00;100916.94;5034896;28;20179;-70
2022/10/16 03:41:01;;;;;;;2.60;1.30;;;;;;;12.45;100.00;100908.91;5039305;28;20561;-70
2022/10/16 03:43:26;;;;;;;2.47;1.13;;;;;;;12.46;100.00;100920.47;5036346;28;20192;-70
2022/10/16 03:45:52;;;;;;;3.23;1.97;;;;;;;12.02;100.00;100850.19;5040970;28;20190;-70
2022/10/16 03:48:18;;;;;;;3.50;1.50;;;;;;;12.43;100.00;100924.41;5030257;28;20679;-70
2022/10/16 03:50:44;;;;;;;3.13;1.87;;;;;;;12.32;100.00;100901.66;5042884;28;20573;-70
2022/10/16 03:53:09;;;;;;;3.20;1.60;;;;;;;11.95;100.00;100847.53;5037869;28;20450;-69
2022/10/16 03:55:35;;;;;;;4.07;1.70;;;;;;;12.46;100.00;100932.06;5041144;28;20195;-70
2022/10/16 03:58:00;;;;;;;4.80;1.63;;;;;;;12.42;100.00;100923.59;5042704;28;20659;-70
2022/10/16 04:00:26;;;;;;;2.40;1.67;;;;;;;12.08;100.00;100878.94;5039998;28;20655;-70
2022/10/16 04:02:51;;;;;;;3.90;1.87;;;;;;;11.94;100.00;100853.09;5041730;28;20195;-70
2022/10/16 04:05:17;;;;;;;3.80;1.70;;;;;;;12.49;100.00;100934.34;5042448;28;20990;-70
2022/10/16 04:07:42;;;;;;;4.10;1.77;;;;;;;12.11;100.00;100880.38;5041315;28;20695;-70
2022/10/16 04:10:08;;;;;;;4.10;1.27;;;;;;;12.48;100.00;100934.56;5041503;28;20703;-69
2022/10/16 04:12:33;;;;;;;4.13;2.13;;;;;;;12.46;100.00;100940.13;5027419;28;20191;-70
2022/10/16 04:14:59;;;;;;;8.03;2.07;;;;;;;11.70;100.00;100814.22;5041524;28;20837;-70
2022/10/16 04:17:24;;;;;;;4.93;1.77;;;;;;;12.50;100.00;100929.78;5042119;28;20606;-70
2022/10/16 04:19:49;;;;;;;10.60;1.70;;;;;;;12.40;100.00;100932.91;5043138;28;20212;-70
2022/10/16 04:22:15;;;;;;;3.03;1.60;;;;;;;12.39;100.00;100925.88;5042974;28;20206;-70
2022/10/16 04:24:40;;;;;;;4.40;2.20;;;;;;;12.36;100.00;100943.25;5043949;28;20274;-70
2022/10/16 04:27:06;;;;;;;4.47;2.73;;;;;;;12.06;100.00;100890.94;5042302;28;20180;-70
2022/10/16 04:29:31;;;;;;;2.53;1.50;;;;;;;12.35;100.00;100943.47;5040902;28;20238;-70
2022/10/16 04:31:56;;;;;;;7.60;1.60;;;;;;;12.19;100.00;100926.72;5044254;28;20199;-69
2022/10/16 04:34:22;;;;;;;2.40;1.30;;;;;;;12.32;100.00;100952.75;5043836;28;20557;-70
2022/10/16 04:36:49;;;;;;;2.90;1.27;;;;;;;12.20;100.00;100939.13;5044184;28;20188;-69
2022/10/16 04:39:15;;;;;;;3.40;1.67;;;;;;;12.15;100.00;100928.19;5042558;28;20199;-71
2022/10/16 04:41:40;;;;;;;5.10;2.27;;;;;;;11.85;100.00;100884.72;5044968;28;21104;-70
2022/10/16 04:44:05;;;;;;;4.57;1.87;;;;;;;12.27;100.00;100955.28;5044080;28;20449;-70
2022/10/16 04:46:31;;;;;;;5.57;2.80;;;;;;;11.46;100.00;100829.91;5044308;28;20219;-70
2022/10/16 04:48:56;;;;;;;4.83;2.20;;;;;;;11.75;100.00;100884.28;5040107;28;20220;-69
2022/10/16 04:51:22;;;;;;;4.60;2.37;;;;;;;12.18;100.00;100961.91;5042661;28;20184;-71
2022/10/16 04:53:48;;;;;;;8.20;1.73;;;;;;;12.01;100.00;100933.75;5044070;28;20192;-70
2022/10/16 04:56:14;;;;;;;2.93;1.87;;;;;;;12.02;100.00;100946.97;5042832;28;20474;-69
2022/10/16 04:58:40;;;;;;;4.83;1.60;;;;;;;12.20;100.00;100979.44;5041943;28;20262;-70
2022/10/16 05:01:05;;;;;;;5.43;1.70;;;;;;;12.20;100.00;100987.50;5042755;28;20517;-70
2022/10/16 05:03:30;;;;;;;3.20;1.60;;;;;;;12.21;100.00;100983.00;5039621;28;20805;-70
2022/10/16 05:05:56;;;;;;;5.53;2.00;;;;;;;11.66;100.00;100894.41;5041460;28;20207;-71
2022/10/16 05:08:21;;;;;;;3.70;1.60;;;;;;;11.99;100.00;100961.66;5041060;28;20198;-69
2022/10/16 05:10:47;;;;;;;4.50;1.60;;;;;;;12.10;100.00;100976.34;5043205;28;20274;-71
2022/10/16 05:13:12;;;;;;;3.47;2.40;;;;;;;12.27;100.00;101001.00;5042326;28;20188;-70
2022/10/16 05:15:38;;;;;;;3.77;2.00;;;;;;;11.36;100.00;100861.69;5039987;28;20282;-71
2022/10/16 05:18:03;;;;;;;2.83;1.53;;;;;;;11.87;100.00;100944.47;5033090;28;20191;-70
2022/10/16 05:20:29;;;;;;;6.90;1.57;;;;;;;11.89;100.00;100958.56;5037476;28;20211;-71
2022/10/16 05:22:54;;;;;;;5.13;3.53;;;;;;;12.12;100.00;101000.34;5037728;28;20206;-70
2022/10/16 05:25:20;;;;;;;2.70;2.33;;;;;;;12.21;100.00;101017.94;5040736;28;20191;-70
2022/10/16 05:27:49;;;;;;;4.07;1.90;;;;;;;12.37;100.00;101025.59;5037681;28;20214;-71
2022/10/16 05:30:15;;;;;;;3.97;1.47;;;;;;;12.34;100.00;101034.09;5040588;28;20212;-71
2022/10/16 05:32:40;;;;;;;4.80;1.53;;;;;;;12.39;100.00;101045.06;5038049;28;20446;-71
2022/10/16 05:35:06;;;;;;;4.07;1.30;;;;;;;12.18;100.00;100999.53;5038695;28;20526;-71
2022/10/16 05:37:33;;;;;;;6.20;1.50;;;;;;;11.98;100.00;100961.88;5021124;28;20188;-69
2022/10/16 05:39:58;;;;;;;2.90;1.60;;;;;;;11.64;100.00;100922.50;5037106;28;20215;-71
2022/10/16 05:42:23;;;;;;;7.93;2.10;;;;;;;12.15;100.00;100999.91;5041358;28;20453;-69
2022/10/16 05:44:49;;;;;;;2.63;1.50;;;;;;;12.09;100.00;100971.16;5041026;28;20191;-70
2022/10/16 05:47:14;;;;;;;3.20;1.33;;;;;;;11.84;100.00;100946.72;5039727;28;20185;-70
2022/10/16 05:49:40;;;;;;;6.90;2.37;;;;;;;11.99;100.00;100993.09;5039982;28;20203;-70
2022/10/16 05:52:05;;;;;;;6.17;2.30;;;;;;;12.28;100.00;101048.34;5037708;28;20199;-70
2022/10/16 05:54:31;;;;;;;8.70;2.33;;;;;;;11.73;100.00;100948.97;5039765;28;20566;-70
2022/10/16 05:56:56;;;;;;;3.20;1.63;;;;;;;11.91;100.00;100985.22;5037854;28;20234;-69
2022/10/16 05:59:21;;;;;;;3.90;1.70;;;;;;;12.30;100.00;101040.91;5038710;28;20223;-70
2022/10/16 06:01:47;;;;;;;3.23;1.90;;;;;;;11.73;100.00;100948.16;5025920;28;20299;-70
2022/10/16 06:04:12;;;;;;;6.33;1.90;;;;;;;12.30;100.00;101049.00;5036150;28;20188;-70
2022/10/16 06:06:37;;;;;;;5.13;1.70;;;;;;;12.31;100.00;101049.81;5039481;28;20580;-70
2022/10/16 06:09:03;;;;;;;6.13;1.90;;;;;;;11.77;100.00;100954.75;5037652;28;20227;-70
2022/10/16 06:11:31;;;;;;;2.87;1.40;;;;;;;12.35;100.00;101051.03;5037647;28;20215;-70
2022/10/16 06:14:01;;;;;;;4.27;1.43;;;;;;;11.53;100.00;100924.75;5039293;28;20526;-70
2022/10/16 06:16:27;;;;;;;6.30;2.00;;;;;;;12.05;100.00;101011.09;5039161;28;20528;-70
2022/10/16 06:18:54;;;;;;;2.83;1.80;;;;;;;11.88;100.00;100980.25;5039840;28;20514;-70
2022/10/16 06:21:22;;;;;;;3.13;1.83;;;;;;;11.79;100.00;100976.88;5040474;28;20184;-70
2022/10/16 06:23:47;;;;;;;8.30;2.07;;;;;;;11.74;100.00;100972.13;5023854;28;20443;-70
2022/10/16 06:26:15;;;;;;;4.37;1.83;;;;;;;12.21;100.00;101051.03;5024711;28;20429;-70
2022/10/16 06:28:40;;;;;;;6.53;1.90;;;;;;;12.45;100.00;101083.78;5025488;28;20234;-70
2022/10/16 06:31:10;;;;;;;6.30;2.00;;;;;;;12.35;100.00;101064.50;5040946;28;20422;-70
2022/10/16 06:33:37;;;;;;;2.80;1.60;;;;;;;12.04;100.00;101019.38;5020329;28;20186;-71
2022/10/16 06:36:06;;;;;;;3.93;1.40;;;;;;;12.48;100.00;101088.72;5034435;28;20544;-71
2022/10/16 06:38:32;;;;;;;3.27;2.00;;;;;;;12.36;100.00;101076.94;5026452;28;20960;-70
2022/10/16 06:40:58;;;;;;;6.00;1.80;;;;;;;12.45;100.00;101099.91;5041644;28;20450;-70
2022/10/16 06:43:25;;;;;;;5.53;1.90;;;;;;;12.43;100.00;101102.78;5025742;28;20442;-70
2022/10/16 06:45:52;;;;;;;4.60;1.90;;;;;;;12.18;100.00;101061.38;5037424;28;20442;-71
2022/10/16 06:48:18;;;;;;;5.37;1.73;;;;;;;11.95;100.00;101032.19;5037862;28;20481;-69
2022/10/16 06:50:43;;;;;;;2.93;1.70;;;;;;;12.39;100.00;101098.88;5033611;28;20700;-70
2022/10/16 06:53:08;;;;;;;3.93;2.17;;;;;;;12.32;100.00;101100.69;5019485;28;20187;-70
2022/10/16 06:55:34;;;;;;;3.10;1.70;;;;;;;11.89;100.00;101032.97;5034595;28;20196;-69
2022/10/16 06:57:59;;;;;;;6.77;1.97;;;;;;;12.15;100.00;101075.22;5018810;28;20655;-70
2022/10/16 07:00:24;;;;;;;5.10;2.10;;;;;;;12.20;100.00;101073.56;5034232;28;20227;-70
2022/10/16 07:02:50;;;;;;;5.33;1.70;;;;;;;12.52;100.00;101118.75;5019065;28;20183;-70
2022/10/16 07:05:16;;;;;;;3.73;1.90;;;;;;;12.10;100.00;101051.63;5037746;28;20183;-70
2022/10/16 07:07:41;;;;;;;6.33;2.17;;;;;;;12.57;100.00;101127.88;5035831;28;20619;-70
2022/10/16 07:10:07;;;;;;;7.00;2.47;;;;;;;12.41;100.00;101098.63;5033276;28;20481;-70
2022/10/16 07:12:33;;;;;;;3.53;2.20;;;;;;;12.69;100.00;101135.34;5036674;28;20254;-70
2022/10/16 07:14:58;;;;;;;1.97;1.73;;;;;;;12.63;100.00;101134.28;5034090;28;20465;-70
2022/10/16 07:17:23;;;;;;;5.57;2.20;;;;;;;12.73;100.00;101148.19;5035477;28;20605;-70
2022/10/16 07:19:49;;;;;;;3.70;1.87;;;;;;;12.15;100.00;101070.69;5021040;28;20211;-71
2022/10/16 07:22:14;;;;;;;4.60;2.03;;;;;;;12.09;100.00;101060.75;5040219;28;20206;-70
2022/10/16 07:24:40;;;;;;;4.10;1.70;;;;;;;12.68;100.00;101153.34;5035893;28;20187;-70
2022/10/16 07:27:05;;;;;;;5.40;2.20;;;;;;;12.40;100.00;101108.56;5031065;28;20188;-70
2022/10/16 07:29:31;;;;;;;4.67;1.90;;;;;;;12.66;100.00;101142.78;5037847;28;20730;-71
2022/10/16 07:31:56;;;;;;;7.33;2.73;;;;;;;12.77;100.00;101168.25;5036912;28;20199;-70
2022/10/16 07:34:21;;;;;;;2.10;1.57;;;;;;;12.47;100.00;101129.28;5038764;28;20456;-69
2022/10/16 07:36:49;;;;;;;4.90;2.07;;;;;;;12.82;100.00;101192.72;5036128;28;20249;-70
2022/10/16 07:39:15;;;;;;;2.93;1.83;;;;;;;12.68;100.00;101147.97;5037532;28;20195;-70
2022/10/16 07:41:40;;;;;;;6.83;2.00;;;;;;;12.80;100.00;101180.47;5037786;28;20439;-70
2022/10/16 07:44:06;;;;;;;5.70;2.47;;;;;;;12.81;100.00;101193.72;5024528;28;20203;-70
2022/10/16 07:46:33;;;;;;;9.50;2.20;;;;;;;12.72;100.00;101192.25;5032739;28;20234;-71
2022/10/16 07:48:58;;;;;;;4.73;1.90;;;;;;;12.84;100.00;101192.50;5022865;28;20488;-70
2022/10/16 07:51:25;;;;;;;4.03;2.17;;;;;;;12.20;100.00;101096.94;5039360;28;20437;-71
2022/10/16 07:53:53;;;;;;;5.10;2.30;;;;;;;12.73;100.00;101180.47;5036818;28;20651;-70
2022/10/16 07:56:19;;;;;;;2.57;1.80;;;;;;;12.86;100.00;101196.63;5035675;28;20446;-71
2022/10/16 07:58:45;;;;;;;8.03;1.87;;;;;;;12.79;100.00;101193.13;5037807;28;20465;-72
2022/10/16 08:01:13;;;;;;;8.43;2.00;;;;;;;12.26;100.00;101112.28;5038212;28;20442;-71
2022/10/16 08:03:41;;;;;;;2.60;1.50;;;;;;;12.49;100.00;101151.44;5036626;28;20694;-72
2022/10/16 08:06:07;;;;;;;2.87;2.07;;;;;;;12.95;100.00;101236.81;5020070;28;20460;-70
2022/10/16 08:08:32;;;;;;;4.63;1.90;;;;;;;13.06;100.00;101226.28;5022820;28;20462;-72
2022/10/16 08:10:58;;;;;;;3.93;1.70;;;;;;;12.65;100.00;101162.66;5038166;28;20251;-71
2022/10/16 08:13:24;;;;;;;3.37;1.70;;;;;;;13.11;100.00;101231.06;5035588;28;20187;-71
2022/10/16 08:15:49;;;;;;;6.53;2.10;;;;;;;13.15;100.00;101231.47;5034956;28;20229;-73
2022/10/16 08:18:15;;;;;;;2.47;1.60;;;;;;;13.18;100.00;101226.50;5038851;28;20660;-71
2022/10/16 08:20:42;;;;;;;3.13;1.60;;;;;;;13.12;100.00;101211.16;5025181;28;20212;-71
2022/10/16 08:23:10;;;;;;;3.03;1.43;;;;;;;12.65;100.00;101135.75;5022017;28;20813;-72
2022/10/16 08:25:37;;;;;;;3.83;1.57;;;;;;;13.24;100.00;101241.00;5019982;28;20449;-71
2022/10/16 08:28:06;;;;;;;7.33;1.80;;;;;;;13.32;100.00;101225.50;5037007;28;21013;-70
2022/10/16 08:30:32;;;;;;;2.80;1.20;;;;;;;13.23;100.00;101232.09;5037616;28;20461;-72
2022/10/16 08:32:58;;;;;;;5.10;1.63;;;;;;;13.32;100.00;101238.97;5037301;28;21022;-71
2022/10/16 08:35:24;;;;;;;3.63;1.83;;;;;;;13.52;100.00;101254.31;5036729;28;21124;-70
2022/10/16 08:37:49;;;;;;;2.83;1.70;;;;;;;12.98;100.00;101158.34;5035090;28;20377;-72
2022/10/16 08:40:23;;;;;;;4.07;1.90;;;;;;;13.63;100.00;101255.56;5037599;28;20544;-71
2022/10/16 08:43:11;;;;;;;5.93;2.00;;;;;;;12.73;100.00;101126.66;5041820;28;20572;-71
2022/10/16 08:45:59;;;;;;;5.50;1.23;;;;;;;13.64;100.00;101263.41;5027055;28;20486;-72
2022/10/16 08:48:39;;;;;;;3.10;1.30;;;;;;;13.68;100.00;101272.75;5036715;28;20500;-71
2022/10/16 08:51:05;;;;;;;5.43;1.70;;;;;;;13.42;100.00;101240.41;5034975;28;20434;-70
2022/10/16 08:53:54;;;;;;;4.23;1.50;;;;;;;13.34;100.00;101239.59;5034582;28;20926;-70
2022/10/16 08:56:19;;;;;;;5.30;1.90;;;;;;;13.59;100.00;101274.00;5039058;28;20991;-72
2022/10/16 08:58:47;;;;;;;6.30;2.00;;;;;;;13.48;100.00;101259.28;5035595;28;20511;-72
2022/10/16 09:01:15;;;;;;;7.13;1.97;;;;;;;13.17;100.00;101207.88;5036331;28;20727;-73
2022/10/16 09:03:55;;;;;;;3.43;1.50;;;;;;;13.68;100.00;101264.69;5039855;28;20490;-72
2022/10/16 09:06:37;;;;;;;3.43;1.40;;;;;;;13.64;100.00;101241.03;5038193;28;20442;-72
2022/10/16 09:09:37;;;;;;;4.23;1.50;;;;;;;13.95;100.00;101275.41;5036208;28;20505;-71
2022/10/16 09:12:20;;;;;;;4.00;1.80;;;;;;;14.13;100.00;101277.44;4987968;28;20453;-72
2022/10/16 09:15:16;;;;;;;4.40;1.80;;;;;;;14.22;100.00;101285.09;5035361;28;20461;-73
2022/10/16 09:17:47;;;;;;;2.73;1.40;;;;;;;14.11;100.00;101247.16;5035471;28;20937;-72
2022/10/16 09:20:34;;;;;;;5.30;1.67;;;;;;;14.37;100.00;101289.41;5028818;28;20476;-72
2022/10/16 09:23:17;;;;;;;3.10;1.50;;;;;;;14.33;100.00;101253.09;5049018;23;20500;-78
2022/10/16 09:25:45;;;;;;;7.93;1.67;;;;;;;13.03;100.00;101088.53;5040284;28;20445;-78
2022/10/16 09:28:11;;;;;;;6.00;1.50;;;;;;;12.55;100.00;101016.09;5049947;28;20553;-76
2022/10/16 09:30:37;;;;;;;5.47;2.27;;;;;;;12.49;100.00;101027.69;5058474;28;20527;-76
2022/10/16 09:33:04;;;;;;;5.77;1.63;;;;;;;12.39;100.00;101001.19;5052943;28;20214;-75
2022/10/16 09:35:46;;;;;;;5.87;1.60;;;;;;;13.06;100.00;101115.88;5049405;28;20453;-77
2022/10/16 09:38:23;;;;;;;6.43;1.20;;;;;;;13.76;100.00;101172.78;5055691;28;20437;-76
2022/10/16 09:40:51;;;;;;;3.83;1.70;;;;;;;12.37;100.00;100947.59;5056640;28;20940;-76
2022/10/16 09:43:25;;;;;;;4.00;1.37;;;;;;;12.74;100.00;101003.66;5052253;28;21970;-76
2022/10/16 09:46:04;;;;;;;5.80;1.67;;;;;;;13.85;100.00;101224.59;5060406;28;20432;-80
2022/10/16 09:48:43;;;;;;;3.57;1.60;;;;;;;13.66;100.00;101210.13;5060364;28;20488;-76
2022/10/16 09:51:19;;;;;;;4.10;1.40;;;;;;;12.68;100.00;101013.41;5060662;28;20445;-76
2022/10/16 09:53:46;;;;;;;3.30;1.20;;;;;;;13.47;100.00;101162.47;5058601;28;20453;-77
2022/10/16 09:56:22;;;;;;;3.63;1.20;;;;;;;12.70;100.00;101005.97;5058935;28;20906;-75
2022/10/16 09:58:53;;;;;;;10.20;1.60;;;;;;;13.78;100.00;101180.66;5057870;28;20444;-74
2022/10/16 10:01:37;;;;;;;6.13;1.70;;;;;;;12.52;100.00;100919.66;5048300;28;20477;-78
2022/10/16 10:04:03;;;;;;;4.63;1.40;;;;;;;12.83;100.00;100943.19;5056172;28;20453;-77
2022/10/16 10:06:33;;;;;;;7.07;1.43;;;;;;;13.99;100.00;101117.53;5055918;28;20437;-75
2022/10/16 10:09:17;;;;;;;7.60;1.53;;;;;;;15.14;100.00;101296.53;5058780;28;20539;-82
2022/10/16 10:11:51;;;;;;;4.00;1.73;;;;;;;15.26;100.00;101293.13;5059307;28;21145;-82
2022/10/16 10:14:38;;;;;;;4.50;1.40;;;;;;;15.15;100.00;101308.97;5048119;28;20448;-82
2022/10/16 10:17:06;;;;;;;7.50;1.40;;;;;;;15.28;100.00;101301.88;5060246;28;20426;-81
2022/10/16 10:19:45;;;;;;;6.47;1.50;;;;;;;14.14;100.00;101115.38;5059031;28;20437;-75
2022/10/16 10:22:45;;;;;;;5.37;1.60;;;;;;;14.83;100.00;101183.09;5061273;28;20421;-76
2022/10/16 10:25:10;;;;;;;6.73;2.00;;;;;;;15.24;100.00;101306.03;5061018;28;20433;-76
2022/10/16 10:27:58;;;;;;;4.40;1.30;;;;;;;15.35;100.00;101308.03;5061473;28;20903;-78
2022/10/16 10:30:29;;;;;;;6.83;1.60;;;;;;;15.31;100.00;101307.66;5060815;28;20254;-74
2022/10/16 10:33:16;;;;;;;7.43;1.73;;;;;;;15.48;100.00;101307.13;5060997;28;20483;-76
2022/10/16 10:36:01;;;;;;;8.57;1.97;;;;;;;13.61;100.00;101047.38;5055275;28;20487;-77
2022/10/16 10:38:40;;;;;;;6.60;1.40;;;;;;;15.81;100.00;101312.28;5057570;28;20471;-76
2022/10/16 10:41:38;;;;;;;7.07;1.53;;;;;;;14.01;100.00;100986.81;5059687;28;20437;-79
2022/10/16 10:44:32;;;;;;;14.00;2.60;;;;;;;14.57;100.00;101113.91;5060666;28;20473;-84
2022/10/16 10:47:04;;;;;;;4.10;1.63;;;;;;;15.27;100.00;101202.91;5059596;28;20961;-78
2022/10/16 10:49:45;;;;;;;6.67;2.33;;;;;;;16.06;100.00;101311.44;5061612;28;20562;-78
2022/10/16 10:52:20;;;;;;;8.23;2.53;;;;;;;15.43;100.00;101205.06;5059543;28;20463;-81
2022/10/16 10:55:16;;;;;;;6.93;2.30;;;;;;;16.32;100.00;101311.16;5061950;28;21012;-74
2022/10/16 10:58:24;;;;;;;8.77;2.30;;;;;;;15.67;100.00;101172.78;5059207;28;20430;-74
2022/10/16 11:01:11;;;;;;;10.00;3.30;;;;;;;16.07;100.00;101313.91;5061071;28;20421;-76
2022/10/16 11:04:01;;;;;;;7.93;2.83;;;;;;;15.77;100.00;101281.31;5061093;28;20438;-75
2022/10/16 11:06:39;;;;;;;8.93;1.93;;;;;;;14.47;100.00;101066.59;5054741;28;20599;-77
2022/10/16 11:09:19;;;;;;;7.73;2.03;;;;;;;15.85;100.00;101207.16;5053651;28;20552;-76
2022/10/16 11:11:55;;;;;;;15.43;3.50;;;;;;;15.84;100.00;101219.03;5057968;28;20469;-76
2022/10/16 11:14:45;;;;;;;9.40;2.27;;;;;;;14.88;100.00;101057.16;5055610;28;20479;-75
2022/10/16 11:17:17;;;;;;;8.03;2.30;;;;;;;14.78;100.00;101081.16;5049547;28;20429;-76
2022/10/16 11:20:00;;;;;;;6.57;2.23;;;;;;;14.95;100.00;101151.63;5058212;28;20433;-75
2022/10/16 11:22:37;;;;;;;10.63;3.10;;;;;;;14.79;100.00;101152.19;5056986;28;20421;-75
2022/10/16 11:25:13;;;;;;;10.20;2.10;;;;;;;16.13;100.00;101344.66;5059814;28;20525;-78
2022/10/16 11:27:50;;;;;;;6.63;1.50;;;;;;;16.11;100.00;101346.75;5054393;28;20476;-76
2022/10/16 11:30:18;;;;;;;7.93;2.03;;;;;;;14.21;100.00;101035.25;5058393;28;20448;-77